createdAt,value
2023-09-15T05:01:43.381Z,85.12
2023-09-15T05:01:49.295Z,98.91
2023-09-15T05:02:49.284Z,98.68
2023-09-15T05:03:49.318Z,98.57
2023-09-15T05:04:49.265Z,98.49
2023-09-15T05:05:49.240Z,98.42
2023-09-15T05:06:49.332Z,98.38
2023-09-15T05:07:49.151Z,98.33
2023-09-15T05:08:49.362Z,98.33
2023-09-15T05:09:49.370Z,98.30
2023-09-15T05:10:49.092Z,98.30
2023-09-15T05:11:49.084Z,98.30
2023-09-15T05:12:49.224Z,98.26
2023-09-15T05:13:49.056Z,98.28
2023-09-15T05:14:49.062Z,98.28
2023-09-15T05:15:49.147Z,98.32
2023-09-15T05:16:49.081Z,98.36
2023-09-15T05:17:49.285Z,98.38
2023-09-15T05:18:49.313Z,98.40
2023-09-15T05:19:48.985Z,98.40
2023-09-15T05:20:48.973Z,98.38
2023-09-15T05:21:49.118Z,98.33
2023-09-15T05:22:48.933Z,98.28
2023-09-15T05:23:48.942Z,98.23
2023-09-15T05:24:48.985Z,98.18
2023-09-15T05:25:48.893Z,98.11
2023-09-15T05:26:48.877Z,98.06
2023-09-15T05:27:49.359Z,97.99
2023-09-15T05:28:49.117Z,97.96
2023-09-15T05:29:48.861Z,97.85
2023-09-15T05:30:48.905Z,97.77
2023-09-15T05:31:48.883Z,97.73
2023-09-15T05:32:48.821Z,97.67
2023-09-15T05:33:48.827Z,97.61
2023-09-15T05:34:48.782Z,97.55
2023-09-15T05:35:48.776Z,97.53
2023-09-15T05:36:48.802Z,97.48
2023-09-15T05:37:48.759Z,97.36
2023-09-15T05:38:48.937Z,97.22
2023-09-15T05:39:48.744Z,97.10
2023-09-15T05:40:48.708Z,96.94
2023-09-15T05:41:48.703Z,96.87
2023-09-15T05:42:48.765Z,96.67
2023-09-15T05:43:48.690Z,96.55
2023-09-15T05:44:48.744Z,96.45
2023-09-15T05:45:48.660Z,96.32
2023-09-15T05:46:48.754Z,96.16
2023-09-15T05:47:48.678Z,96.11
2023-09-15T05:48:49.008Z,95.97
2023-09-15T05:49:48.614Z,95.87
2023-09-15T05:50:48.601Z,95.81
2023-09-15T05:51:48.602Z,95.84
2023-09-15T05:52:48.568Z,95.81
2023-09-15T05:53:48.553Z,95.76
2023-09-15T05:54:48.665Z,95.65
2023-09-15T05:55:48.560Z,95.60
2023-09-15T05:56:48.548Z,95.66
2023-09-15T05:57:48.561Z,95.62
2023-09-15T05:58:48.777Z,95.64
2023-09-15T05:59:48.529Z,95.63
2023-09-15T06:00:48.521Z,95.65
2023-09-15T06:01:48.541Z,95.61
2023-09-15T06:02:48.460Z,95.54
2023-09-15T06:03:48.481Z,95.64
2023-09-15T06:04:48.421Z,95.62
2023-09-15T06:05:48.414Z,95.50
2023-09-15T06:06:48.435Z,95.55
2023-09-15T06:07:48.480Z,95.58
2023-09-15T06:08:48.509Z,95.30
2023-09-15T06:09:48.453Z,95.24
2023-09-15T06:10:48.379Z,95.11
2023-09-15T06:11:48.322Z,95.06
2023-09-15T06:12:48.357Z,95.28
2023-09-15T06:13:48.294Z,95.32
2023-09-15T06:14:48.353Z,95.20
2023-09-15T06:15:48.295Z,95.12
2023-09-15T06:16:48.374Z,95.32
2023-09-15T06:17:48.301Z,95.60
2023-09-15T06:18:48.491Z,95.57
2023-09-15T06:19:48.211Z,95.66
2023-09-15T06:20:48.228Z,95.68
2023-09-15T06:21:48.195Z,95.60
2023-09-15T06:22:48.183Z,95.49
2023-09-15T06:23:48.167Z,95.37
2023-09-15T06:24:48.182Z,95.29
2023-09-15T06:25:48.117Z,95.04
2023-09-15T06:26:48.131Z,95.00
2023-09-15T06:27:48.088Z,95.30
2023-09-15T06:28:48.292Z,95.38
2023-09-15T06:29:48.125Z,95.56
2023-09-15T06:30:48.144Z,95.62
2023-09-15T06:31:48.087Z,95.76
2023-09-15T06:32:48.070Z,95.84
2023-09-15T06:33:48.019Z,95.99
2023-09-15T06:34:48.008Z,96.06
2023-09-15T06:35:48.022Z,96.24
2023-09-15T06:36:48.111Z,96.25
2023-09-15T06:37:47.993Z,96.29
2023-09-15T06:38:48.165Z,96.34
2023-09-15T06:39:47.962Z,96.21
2023-09-15T06:40:47.957Z,96.04
2023-09-15T06:41:47.954Z,96.09
2023-09-15T06:42:47.985Z,96.00
2023-09-15T06:43:47.923Z,96.04
2023-09-15T06:44:47.920Z,95.93
2023-09-15T06:45:47.927Z,96.05
2023-09-15T06:46:48.051Z,95.81
2023-09-15T06:47:47.897Z,95.73
2023-09-15T06:48:48.194Z,95.80
2023-09-15T06:49:47.848Z,95.93
2023-09-15T06:50:47.859Z,95.97
2023-09-15T06:51:47.799Z,96.14
2023-09-15T06:52:47.864Z,96.06
2023-09-15T06:53:47.782Z,95.88
2023-09-15T06:54:47.768Z,95.91
2023-09-15T06:55:47.745Z,95.96
2023-09-15T06:56:47.738Z,95.97
2023-09-15T06:57:47.787Z,95.97
2023-09-15T06:58:47.953Z,96.00
2023-09-15T06:59:47.684Z,96.23
2023-09-15T07:00:47.776Z,96.26
2023-09-15T07:01:49.107Z,95.94
2023-09-15T07:02:47.870Z,95.67
2023-09-15T07:03:47.642Z,95.13
2023-09-15T07:04:47.775Z,94.97
2023-09-15T07:05:47.643Z,94.72
2023-09-15T07:06:47.688Z,94.88
2023-09-15T07:07:47.629Z,95.17
2023-09-15T07:08:47.780Z,95.31
2023-09-15T07:09:47.591Z,95.13
2023-09-15T07:10:47.558Z,94.85
2023-09-15T07:11:47.545Z,94.62
2023-09-15T07:12:47.586Z,94.68
2023-09-15T07:13:50.808Z,94.36
2023-09-15T07:14:47.530Z,94.37
2023-09-15T07:15:47.506Z,94.07
2023-09-15T07:16:47.525Z,93.71
2023-09-15T07:17:47.511Z,93.46
2023-09-15T07:18:47.475Z,93.16
2023-09-15T07:19:47.437Z,93.09
2023-09-15T07:20:47.427Z,92.96
2023-09-15T07:21:47.412Z,92.89
2023-09-15T07:22:47.419Z,92.96
2023-09-15T07:23:47.720Z,92.95
2023-09-15T07:24:47.426Z,92.79
2023-09-15T07:25:47.381Z,92.88
2023-09-15T07:26:47.385Z,92.78
2023-09-15T07:27:47.385Z,92.91
2023-09-15T07:28:47.483Z,93.20
2023-09-15T07:29:47.352Z,93.10
2023-09-15T07:30:47.389Z,93.25
2023-09-15T07:31:47.311Z,93.12
2023-09-15T07:32:47.273Z,93.18
2023-09-15T07:33:47.486Z,93.18
2023-09-15T07:34:47.235Z,93.28
2023-09-15T07:35:47.216Z,93.18
2023-09-15T07:36:47.223Z,93.23
2023-09-15T07:37:47.196Z,93.03
2023-09-15T07:38:47.185Z,93.14
2023-09-15T07:39:47.446Z,93.03
2023-09-15T07:40:47.283Z,92.50
2023-09-15T07:41:47.181Z,92.13
2023-09-15T07:42:47.185Z,91.27
2023-09-15T07:43:47.572Z,90.91
2023-09-15T07:44:47.181Z,90.64
2023-09-15T07:45:47.111Z,90.84
2023-09-15T07:46:47.176Z,90.76
2023-09-15T07:47:47.149Z,90.73
2023-09-15T07:48:47.093Z,90.58
2023-09-15T07:49:47.072Z,90.56
2023-09-15T07:50:47.078Z,90.39
2023-09-15T07:51:47.031Z,90.17
2023-09-15T07:52:47.036Z,90.38
2023-09-15T07:53:47.274Z,89.75
2023-09-15T07:54:47.036Z,89.92
2023-09-15T07:55:46.978Z,90.42
2023-09-15T07:56:46.976Z,90.61
2023-09-15T07:57:46.966Z,90.80
2023-09-15T07:58:46.974Z,90.71
2023-09-15T07:59:48.331Z,91.07
2023-09-15T08:00:46.932Z,90.98
2023-09-15T08:01:47.015Z,91.12
2023-09-15T08:02:46.914Z,91.34
2023-09-15T08:03:47.216Z,90.92
2023-09-15T08:04:46.919Z,91.22
2023-09-15T08:05:46.851Z,91.25
2023-09-15T08:06:46.878Z,91.00
2023-09-15T08:07:46.821Z,91.17
2023-09-15T08:08:46.829Z,90.99
2023-09-15T08:09:46.834Z,90.77
2023-09-15T08:10:46.794Z,90.86
2023-09-15T08:11:46.848Z,90.42
2023-09-15T08:12:46.794Z,90.70
2023-09-15T08:13:47.047Z,90.68
2023-09-15T08:14:46.704Z,89.92
2023-09-15T08:15:46.990Z,89.60
2023-09-15T08:16:46.881Z,89.14
2023-09-15T08:17:46.749Z,89.24
2023-09-15T08:18:46.727Z,89.10
2023-09-15T08:19:46.651Z,88.95
2023-09-15T08:20:46.663Z,88.23
2023-09-15T08:21:46.652Z,87.35
2023-09-15T08:22:46.630Z,86.74
2023-09-15T08:23:46.902Z,86.23
2023-09-15T08:24:46.683Z,85.73
2023-09-15T08:25:46.669Z,85.96
2023-09-15T08:26:46.618Z,85.52
2023-09-15T08:27:46.562Z,84.64
2023-09-15T08:28:46.560Z,84.83
2023-09-15T08:29:46.515Z,85.02
2023-09-15T08:30:46.584Z,85.00
2023-09-15T08:31:46.546Z,85.01
2023-09-15T08:32:46.587Z,84.74
2023-09-15T08:33:46.866Z,84.67
2023-09-15T08:34:46.494Z,85.13
2023-09-15T08:35:46.468Z,85.65
2023-09-15T08:36:46.477Z,85.63
2023-09-15T08:37:46.471Z,86.16
2023-09-15T08:38:46.433Z,86.21
2023-09-15T08:39:46.422Z,86.36
2023-09-15T08:40:46.380Z,86.58
2023-09-15T08:41:46.384Z,86.72
2023-09-15T08:42:46.399Z,86.82
2023-09-15T08:43:46.566Z,85.94
2023-09-15T08:44:46.375Z,85.93
2023-09-15T08:45:46.359Z,84.90
2023-09-15T08:46:46.437Z,85.14
2023-09-15T08:47:46.349Z,84.88
2023-09-15T08:48:46.322Z,84.90
2023-09-15T08:49:46.326Z,84.83
2023-09-15T08:50:46.304Z,84.16
2023-09-15T08:51:46.240Z,83.37
2023-09-15T08:52:46.268Z,82.17
2023-09-15T08:53:46.490Z,80.89
2023-09-15T08:54:46.272Z,79.75
2023-09-15T08:55:46.230Z,78.27
2023-09-15T08:56:46.183Z,77.39
2023-09-15T08:57:46.255Z,74.96
2023-09-15T08:58:46.192Z,72.79
2023-09-15T08:59:46.204Z,72.82
2023-09-15T09:00:46.183Z,74.08
2023-09-15T09:01:46.242Z,75.79
2023-09-15T09:02:46.172Z,78.17
2023-09-15T09:03:46.553Z,79.71
2023-09-15T09:04:46.118Z,80.46
2023-09-15T09:05:46.150Z,80.87
2023-09-15T09:06:46.080Z,81.64
2023-09-15T09:07:46.045Z,82.34
2023-09-15T09:08:46.225Z,82.04
2023-09-15T09:09:46.030Z,81.46
2023-09-15T09:10:46.001Z,81.25
2023-09-15T09:11:46.237Z,81.19
2023-09-15T09:12:46.072Z,80.76
2023-09-15T09:13:45.988Z,81.22
2023-09-15T09:14:45.968Z,80.71
2023-09-15T09:15:45.953Z,81.05
2023-09-15T09:16:46.125Z,81.56
2023-09-15T09:17:45.927Z,81.02
2023-09-15T09:18:45.934Z,80.75
2023-09-15T09:19:45.958Z,81.41
2023-09-15T09:20:45.888Z,81.49
2023-09-15T09:21:45.921Z,80.86
2023-09-15T09:22:45.884Z,81.16
2023-09-15T09:23:46.223Z,81.25
2023-09-15T09:24:45.891Z,81.84
2023-09-15T09:25:45.925Z,81.38
2023-09-15T09:26:45.801Z,80.83
2023-09-15T09:27:45.849Z,80.10
2023-09-15T09:28:46.130Z,79.58
2023-09-15T09:29:45.760Z,78.79
2023-09-15T09:30:45.816Z,78.10
2023-09-15T09:31:45.934Z,78.00
2023-09-15T09:32:45.783Z,77.74
2023-09-15T09:33:45.740Z,77.78
2023-09-15T09:34:47.667Z,77.77
2023-09-15T09:35:45.727Z,78.13
2023-09-15T09:36:45.716Z,78.00
2023-09-15T09:37:45.698Z,77.60
2023-09-15T09:38:46.111Z,77.57
2023-09-15T09:39:45.638Z,76.66
2023-09-15T09:40:45.645Z,77.49
2023-09-15T09:41:45.632Z,78.04
2023-09-15T09:42:45.635Z,77.02
2023-09-15T09:43:45.628Z,76.86
2023-09-15T09:44:45.618Z,77.63
2023-09-15T09:45:45.630Z,77.49
2023-09-15T09:46:45.566Z,76.21
2023-09-15T09:47:45.638Z,75.74
2023-09-15T09:48:45.785Z,75.76
2023-09-15T09:49:45.517Z,76.70
2023-09-15T09:50:45.511Z,77.51
2023-09-15T09:51:45.520Z,77.48
2023-09-15T09:52:45.479Z,76.71
2023-09-15T09:53:45.487Z,78.08
2023-09-15T09:54:45.526Z,79.15
2023-09-15T09:55:45.691Z,78.65
2023-09-15T09:56:45.447Z,78.42
2023-09-15T09:57:45.430Z,77.67
2023-09-15T09:58:45.833Z,77.42
2023-09-15T09:59:45.408Z,77.82
2023-09-15T10:00:45.460Z,77.35
2023-09-15T10:01:45.408Z,76.86
2023-09-15T10:02:45.464Z,78.23
2023-09-15T10:03:45.406Z,77.28
2023-09-15T10:04:45.338Z,77.10
2023-09-15T10:05:45.343Z,76.86
2023-09-15T10:06:45.353Z,77.35
2023-09-15T10:07:45.375Z,76.86
2023-09-15T10:08:45.321Z,76.10
2023-09-15T10:09:45.274Z,75.81
2023-09-15T10:10:45.327Z,75.53
2023-09-15T10:11:45.266Z,74.71
2023-09-15T10:12:45.489Z,74.95
2023-09-15T10:13:45.277Z,75.31
2023-09-15T10:14:45.212Z,75.39
2023-09-15T10:15:45.328Z,75.47
2023-09-15T10:16:45.214Z,75.59
2023-09-15T10:17:45.339Z,75.59
2023-09-15T10:18:45.243Z,76.05
2023-09-15T10:19:45.174Z,75.99
2023-09-15T10:20:45.139Z,75.34
2023-09-15T10:21:45.151Z,75.03
2023-09-15T10:22:45.262Z,74.75
2023-09-15T10:23:45.098Z,74.61
2023-09-15T10:24:45.170Z,74.81
2023-09-15T10:25:45.074Z,75.65
2023-09-15T10:26:45.078Z,76.03
2023-09-15T10:27:45.049Z,76.40
2023-09-15T10:28:45.024Z,77.27
2023-09-15T10:29:45.046Z,77.36
2023-09-15T10:30:45.032Z,76.37
2023-09-15T10:31:45.127Z,75.20
2023-09-15T10:32:45.027Z,74.86
2023-09-15T10:33:44.983Z,76.03
2023-09-15T10:34:44.985Z,75.93
2023-09-15T10:35:44.987Z,76.70
2023-09-15T10:36:45.947Z,77.28
2023-09-15T10:37:44.936Z,76.91
2023-09-15T10:38:44.917Z,77.10
2023-09-15T10:39:44.929Z,77.66
2023-09-15T10:40:44.890Z,78.06
2023-09-15T10:41:44.941Z,78.18
2023-09-15T10:42:44.885Z,78.04
2023-09-15T10:43:44.878Z,78.62
2023-09-15T10:44:44.851Z,78.77
2023-09-15T10:45:44.830Z,78.15
2023-09-15T10:46:44.854Z,77.53
2023-09-15T10:47:44.830Z,77.15
2023-09-15T10:48:44.833Z,76.36
2023-09-15T10:49:44.776Z,76.90
2023-09-15T10:50:45.280Z,76.66
2023-09-15T10:51:44.782Z,76.07
2023-09-15T10:52:44.735Z,76.84
2023-09-15T10:53:44.736Z,76.87
2023-09-15T10:54:44.827Z,75.64
2023-09-15T10:55:44.770Z,75.58
2023-09-15T10:56:44.780Z,75.40
2023-09-15T10:57:44.813Z,75.02
2023-09-15T10:58:44.676Z,75.18
2023-09-15T10:59:44.670Z,76.39
2023-09-15T11:00:44.749Z,76.39
2023-09-15T11:01:44.660Z,76.80
2023-09-15T11:02:44.661Z,76.23
2023-09-15T11:03:44.638Z,76.29
2023-09-15T11:04:44.625Z,75.93
2023-09-15T11:05:44.557Z,76.45
2023-09-15T11:06:44.705Z,76.67
2023-09-15T11:07:44.558Z,76.72
2023-09-15T11:08:44.603Z,76.99
2023-09-15T11:09:44.547Z,76.59
2023-09-15T11:10:44.499Z,76.14
2023-09-15T11:11:44.600Z,76.34
2023-09-15T11:12:44.513Z,75.53
2023-09-15T11:13:44.585Z,76.11
2023-09-15T11:14:44.509Z,75.99
2023-09-15T11:15:44.611Z,75.67
2023-09-15T11:16:44.501Z,75.00
2023-09-15T11:17:44.458Z,74.02
2023-09-15T11:18:44.469Z,73.57
2023-09-15T11:19:44.438Z,73.42
2023-09-15T11:20:44.421Z,73.81
2023-09-15T11:21:44.379Z,74.42
2023-09-15T11:22:44.380Z,74.66
2023-09-15T11:23:44.442Z,74.75
2023-09-15T11:24:44.447Z,74.27
2023-09-15T11:25:44.370Z,74.42
2023-09-15T11:26:44.348Z,73.71
2023-09-15T11:27:44.369Z,72.58
2023-09-15T11:28:44.359Z,72.56
2023-09-15T11:29:55.239Z,71.31
2023-09-15T11:30:44.353Z,71.56
2023-09-15T11:31:44.241Z,71.30
2023-09-15T11:32:44.324Z,71.87
2023-09-15T11:33:44.309Z,71.09
2023-09-15T11:34:44.398Z,69.75
2023-09-15T11:35:44.220Z,68.06
2023-09-15T11:36:44.367Z,65.21
2023-09-15T11:37:44.169Z,64.55
2023-09-15T11:38:44.172Z,65.83
2023-09-15T11:39:44.182Z,65.65
2023-09-15T11:40:44.138Z,66.93
2023-09-15T11:41:44.167Z,64.30
2023-09-15T11:42:44.180Z,64.85
2023-09-15T11:43:44.299Z,63.51
2023-09-15T11:44:44.138Z,63.91
2023-09-15T11:45:44.142Z,64.58
2023-09-15T11:46:44.246Z,65.83
2023-09-15T11:47:44.140Z,66.04
2023-09-15T11:48:44.179Z,63.46
2023-09-15T11:49:44.085Z,64.30
2023-09-15T11:50:44.036Z,65.95
2023-09-15T11:51:44.034Z,66.86
2023-09-15T11:52:44.073Z,67.39
2023-09-15T11:53:44.000Z,68.55
2023-09-15T11:54:44.077Z,70.48
2023-09-15T11:55:43.967Z,70.93
2023-09-15T11:56:46.724Z,67.92
2023-09-15T11:57:44.042Z,68.17
2023-09-15T11:58:43.967Z,68.90
2023-09-15T11:59:43.915Z,68.58
2023-09-15T12:00:44.000Z,67.74
2023-09-15T12:01:43.970Z,68.41
2023-09-15T12:02:43.941Z,68.88
2023-09-15T12:03:43.982Z,66.98
2023-09-15T12:04:43.908Z,63.52
2023-09-15T12:05:43.883Z,61.62
2023-09-15T12:06:43.979Z,60.46
2023-09-15T12:07:43.826Z,60.93
2023-09-15T12:08:43.845Z,63.72
2023-09-15T12:09:43.874Z,64.57
2023-09-15T12:10:46.067Z,64.80
2023-09-15T12:11:43.807Z,65.64
2023-09-15T12:12:43.803Z,65.74
2023-09-15T12:13:43.791Z,66.24
2023-09-15T12:14:43.754Z,68.84
2023-09-15T12:15:43.756Z,69.93
2023-09-15T12:16:43.815Z,68.85
2023-09-15T12:17:43.796Z,69.85
2023-09-15T12:18:43.788Z,70.49
2023-09-15T12:19:43.707Z,69.78
2023-09-15T12:20:43.679Z,70.31
2023-09-15T12:21:43.725Z,70.87
2023-09-15T12:22:43.715Z,71.59
2023-09-15T12:23:45.342Z,71.19
2023-09-15T12:24:43.679Z,70.90
2023-09-15T12:25:43.616Z,70.69
2023-09-15T12:26:43.599Z,71.37
2023-09-15T12:27:43.694Z,71.50
2023-09-15T12:28:43.577Z,71.35
2023-09-15T12:29:43.586Z,70.78
2023-09-15T12:30:43.638Z,70.80
2023-09-15T12:31:43.536Z,69.83
2023-09-15T12:32:43.568Z,68.37
2023-09-15T12:33:43.579Z,69.39
2023-09-15T12:34:43.570Z,69.06
2023-09-15T12:35:43.509Z,67.01
2023-09-15T12:36:43.551Z,67.87
2023-09-15T12:37:43.492Z,67.96
2023-09-15T12:38:43.473Z,67.09
2023-09-15T12:39:43.486Z,67.43
2023-09-15T12:40:43.463Z,69.14
2023-09-15T12:41:43.457Z,69.04
2023-09-15T12:42:43.564Z,69.86
2023-09-15T12:43:43.409Z,68.44
2023-09-15T12:44:43.445Z,68.72
2023-09-15T12:45:43.432Z,69.02
2023-09-15T12:46:43.440Z,68.91
2023-09-15T12:47:43.425Z,69.53
2023-09-15T12:48:43.521Z,71.28
2023-09-15T12:49:43.340Z,71.43
2023-09-15T12:50:43.323Z,72.41
2023-09-15T12:51:43.382Z,71.95
2023-09-15T12:52:43.310Z,71.64
2023-09-15T12:53:43.312Z,71.07
2023-09-15T12:54:43.348Z,70.78
2023-09-15T12:55:43.297Z,69.93
2023-09-15T12:56:43.494Z,69.76
2023-09-15T12:57:43.296Z,70.01
2023-09-15T12:58:43.238Z,69.63
2023-09-15T12:59:43.211Z,69.93
2023-09-15T13:00:43.242Z,70.54
2023-09-15T13:01:43.352Z,69.59
2023-09-15T13:02:43.838Z,68.42
2023-09-15T13:03:43.328Z,68.80
2023-09-15T13:04:43.370Z,68.71
2023-09-15T13:05:43.121Z,68.36
2023-09-15T13:06:43.190Z,68.70
2023-09-15T13:07:43.142Z,69.56
2023-09-15T13:08:43.113Z,70.02
2023-09-15T13:09:43.196Z,70.03
2023-09-15T13:10:43.096Z,70.48
2023-09-15T13:11:43.088Z,70.09
2023-09-15T13:12:43.119Z,70.68
2023-09-15T13:13:43.088Z,71.82
2023-09-15T13:14:43.101Z,72.69
2023-09-15T13:15:43.054Z,73.08
2023-09-15T13:16:43.077Z,72.94
2023-09-15T13:17:43.058Z,72.59
2023-09-15T13:18:43.065Z,71.61
2023-09-15T13:19:43.021Z,71.54
2023-09-15T13:20:43.059Z,71.81
2023-09-15T13:21:42.943Z,71.27
2023-09-15T13:22:42.929Z,71.77
2023-09-15T13:23:42.888Z,71.80
2023-09-15T13:24:42.945Z,72.20
2023-09-15T13:25:42.916Z,71.42
2023-09-15T13:26:42.892Z,70.45
2023-09-15T13:27:42.924Z,69.22
2023-09-15T13:28:43.831Z,69.50
2023-09-15T13:29:42.850Z,70.06
2023-09-15T13:30:42.907Z,69.58
2023-09-15T13:31:42.891Z,68.47
2023-09-15T13:32:42.879Z,68.39
2023-09-15T13:33:42.785Z,68.52
2023-09-15T13:34:43.058Z,68.65
2023-09-15T13:35:42.792Z,69.23
2023-09-15T13:36:42.850Z,70.04
2023-09-15T13:37:42.757Z,70.77
2023-09-15T13:38:42.771Z,70.77
2023-09-15T13:39:42.724Z,69.98
2023-09-15T13:40:42.734Z,69.78
2023-09-15T13:41:42.705Z,69.40
2023-09-15T13:42:42.737Z,70.53
2023-09-15T13:43:42.637Z,71.10
2023-09-15T13:44:42.713Z,71.27
2023-09-15T13:45:42.773Z,71.74
2023-09-15T13:46:42.721Z,71.70
2023-09-15T13:47:42.661Z,70.96
2023-09-15T13:48:42.699Z,71.00
2023-09-15T13:49:42.636Z,71.01
2023-09-15T13:50:42.619Z,71.33
2023-09-15T13:51:43.590Z,70.85
2023-09-15T13:52:42.556Z,72.05
2023-09-15T13:53:42.533Z,72.18
2023-09-15T13:54:42.655Z,72.04
2023-09-15T13:55:48.476Z,71.51
2023-09-15T13:56:42.500Z,72.64
2023-09-15T13:57:42.526Z,72.78
2023-09-15T13:58:42.473Z,73.10
2023-09-15T13:59:42.437Z,73.13
2023-09-15T14:00:42.543Z,73.35
2023-09-15T14:01:42.492Z,73.54
2023-09-15T14:02:42.471Z,72.70
2023-09-15T14:03:42.494Z,73.08
2023-09-15T14:04:42.438Z,73.55
2023-09-15T14:05:42.373Z,73.95
2023-09-15T14:06:42.449Z,73.59
2023-09-15T14:07:42.549Z,73.14
2023-09-15T14:08:42.350Z,73.18
2023-09-15T14:09:42.375Z,73.33
2023-09-15T14:10:42.323Z,73.31
2023-09-15T14:11:42.307Z,73.49
2023-09-15T14:12:42.361Z,73.44
2023-09-15T14:13:42.296Z,73.13
2023-09-15T14:14:42.282Z,73.64
2023-09-15T14:15:42.313Z,73.76
2023-09-15T14:16:42.286Z,74.15
2023-09-15T14:17:42.257Z,74.66
2023-09-15T14:18:42.285Z,74.63
2023-09-15T14:19:42.230Z,75.26
2023-09-15T14:20:42.227Z,74.81
2023-09-15T14:21:42.283Z,75.09
2023-09-15T14:22:42.162Z,74.65
2023-09-15T14:23:42.215Z,74.63
2023-09-15T14:24:42.295Z,74.27
2023-09-15T14:25:42.163Z,74.30
2023-09-15T14:26:42.128Z,74.24
2023-09-15T14:27:42.244Z,73.45
2023-09-15T14:28:42.147Z,73.64
2023-09-15T14:29:42.107Z,73.13
2023-09-15T14:30:42.176Z,72.73
2023-09-15T14:31:42.145Z,72.84
2023-09-15T14:32:42.094Z,73.09
2023-09-15T14:33:42.098Z,73.36
2023-09-15T14:34:42.028Z,73.21
2023-09-15T14:35:42.088Z,73.12
2023-09-15T14:36:42.215Z,73.13
2023-09-15T14:37:42.013Z,72.78
2023-09-15T14:38:41.953Z,72.80
2023-09-15T14:39:41.974Z,72.39
2023-09-15T14:40:41.963Z,73.32
2023-09-15T14:41:41.940Z,73.34
2023-09-15T14:42:41.979Z,73.78
2023-09-15T14:43:41.891Z,73.93
2023-09-15T14:44:41.900Z,73.94
2023-09-15T14:45:41.900Z,73.75
2023-09-15T14:46:41.885Z,73.43
2023-09-15T14:47:41.894Z,73.88
2023-09-15T14:48:41.918Z,73.72
2023-09-15T14:49:41.821Z,73.41
2023-09-15T14:50:41.791Z,74.10
2023-09-15T14:51:41.897Z,74.29
2023-09-15T14:52:41.808Z,74.08
2023-09-15T14:53:41.766Z,73.58
2023-09-15T14:54:41.809Z,73.41
2023-09-15T14:55:41.838Z,73.81
2023-09-15T14:56:41.722Z,74.12
2023-09-15T14:57:41.811Z,74.45
2023-09-15T14:58:41.698Z,74.35
2023-09-15T14:59:41.744Z,74.22
2023-09-15T15:00:41.778Z,74.22
2023-09-15T15:01:41.736Z,74.33
2023-09-15T15:02:41.697Z,74.76
2023-09-15T15:03:41.707Z,74.16
2023-09-15T15:04:41.646Z,74.67
2023-09-15T15:05:41.598Z,75.34
2023-09-15T15:06:41.649Z,75.25
2023-09-15T15:07:41.597Z,75.50
2023-09-15T15:08:42.310Z,75.76
2023-09-15T15:09:41.595Z,75.40
2023-09-15T15:10:41.589Z,75.06
2023-09-15T15:11:41.532Z,74.79
2023-09-15T15:12:41.577Z,74.84
2023-09-15T15:13:41.540Z,74.41
2023-09-15T15:14:41.497Z,74.49
2023-09-15T15:15:41.631Z,73.92
2023-09-15T15:16:41.621Z,74.47
2023-09-15T15:17:41.469Z,74.24
2023-09-15T15:18:41.500Z,74.46
2023-09-15T15:19:41.453Z,74.31
2023-09-15T15:20:41.431Z,73.98
2023-09-15T15:21:41.460Z,74.31
2023-09-15T15:22:41.483Z,74.38
2023-09-15T15:23:41.411Z,74.69
2023-09-15T15:24:41.475Z,74.51
2023-09-15T15:25:41.441Z,73.92
2023-09-15T15:26:41.326Z,73.44
2023-09-15T15:27:41.650Z,73.72
2023-09-15T15:28:41.446Z,74.03
2023-09-15T15:29:41.315Z,73.94
2023-09-15T15:30:41.516Z,73.70
2023-09-15T15:31:41.302Z,73.93
2023-09-15T15:32:41.360Z,73.64
2023-09-15T15:33:41.261Z,73.89
2023-09-15T15:34:41.260Z,73.67
2023-09-15T15:35:41.254Z,73.78
2023-09-15T15:36:41.336Z,73.62
2023-09-15T15:37:41.206Z,74.01
2023-09-15T15:38:41.181Z,73.92
2023-09-15T15:39:41.217Z,73.59
2023-09-15T15:40:41.144Z,72.80
2023-09-15T15:41:41.134Z,72.39
2023-09-15T15:42:41.225Z,71.98
2023-09-15T15:43:41.126Z,72.65
2023-09-15T15:44:41.113Z,72.95
2023-09-15T15:45:41.187Z,72.37
2023-09-15T15:46:41.118Z,72.79
2023-09-15T15:47:41.163Z,72.81
2023-09-15T15:48:41.110Z,73.16
2023-09-15T15:49:41.059Z,73.26
2023-09-15T15:50:41.049Z,72.64
2023-09-15T15:51:41.049Z,72.77
2023-09-15T15:52:41.192Z,72.74
2023-09-15T15:53:41.040Z,72.21
2023-09-15T15:54:41.235Z,72.35
2023-09-15T15:55:40.975Z,72.05
2023-09-15T15:56:40.987Z,72.14
2023-09-15T15:57:41.177Z,72.28
2023-09-15T15:58:40.949Z,72.13
2023-09-15T15:59:43.115Z,72.00
2023-09-15T16:00:41.012Z,71.97
2023-09-15T16:01:40.929Z,71.38
2023-09-15T16:02:40.968Z,71.52
2023-09-15T16:03:40.970Z,71.24
2023-09-15T16:04:40.852Z,71.86
2023-09-15T16:05:40.857Z,71.92
2023-09-15T16:06:40.943Z,71.75
2023-09-15T16:07:40.806Z,71.65
2023-09-15T16:08:40.809Z,72.09
2023-09-15T16:09:40.865Z,72.04
2023-09-15T16:10:40.818Z,71.97
2023-09-15T16:11:40.773Z,72.33
2023-09-15T16:12:40.866Z,72.47
2023-09-15T16:13:40.767Z,72.14
2023-09-15T16:14:40.764Z,72.13
2023-09-15T16:15:40.819Z,73.02
2023-09-15T16:16:40.784Z,73.58
2023-09-15T16:17:40.715Z,74.00
2023-09-15T16:18:40.879Z,74.93
2023-09-15T16:19:40.685Z,75.58
2023-09-15T16:20:40.671Z,75.66
2023-09-15T16:21:40.709Z,75.97
2023-09-15T16:22:40.644Z,76.27
2023-09-15T16:23:40.615Z,76.76
2023-09-15T16:24:40.650Z,76.49
2023-09-15T16:25:40.597Z,76.88
2023-09-15T16:26:40.577Z,77.43
2023-09-15T16:27:40.617Z,77.50
2023-09-15T16:28:40.559Z,77.74
2023-09-15T16:29:40.568Z,78.22
2023-09-15T16:30:40.643Z,78.27
2023-09-15T16:31:40.552Z,78.39
2023-09-15T16:32:40.588Z,78.41
2023-09-15T16:33:40.538Z,78.36
2023-09-15T16:34:40.480Z,78.32
2023-09-15T16:35:40.497Z,78.33
2023-09-15T16:36:40.469Z,78.32
2023-09-15T16:37:40.444Z,78.14
2023-09-15T16:38:40.415Z,78.34
2023-09-15T16:39:40.432Z,78.80
2023-09-15T16:40:40.483Z,78.69
2023-09-15T16:41:40.380Z,78.65
2023-09-15T16:42:40.461Z,78.76
2023-09-15T16:43:40.397Z,78.93
2023-09-15T16:44:40.341Z,78.87
2023-09-15T16:45:40.369Z,78.60
2023-09-15T16:46:40.330Z,78.56
2023-09-15T16:47:40.377Z,78.65
2023-09-15T16:48:40.359Z,78.85
2023-09-15T16:49:40.272Z,78.50
2023-09-15T16:50:40.253Z,78.61
2023-09-15T16:51:40.323Z,79.22
2023-09-15T16:52:40.253Z,79.11
2023-09-15T16:53:40.233Z,79.50
2023-09-15T16:54:40.279Z,79.85
2023-09-15T16:55:40.201Z,79.83
2023-09-15T16:56:40.192Z,79.83
2023-09-15T16:57:40.214Z,80.06
2023-09-15T16:58:40.159Z,80.06
2023-09-15T16:59:40.172Z,80.20
2023-09-15T17:00:40.196Z,80.22
2023-09-15T17:01:40.139Z,80.33
2023-09-15T17:02:40.183Z,80.68
2023-09-15T17:03:40.209Z,80.88
2023-09-15T17:04:40.172Z,80.89
2023-09-15T17:05:40.111Z,81.09
2023-09-15T17:06:40.163Z,81.22
2023-09-15T17:07:40.079Z,81.42
2023-09-15T17:08:40.028Z,81.47
2023-09-15T17:09:40.042Z,81.21
2023-09-15T17:10:42.365Z,81.35
2023-09-15T17:11:40.045Z,81.48
2023-09-15T17:12:40.067Z,81.86
2023-09-15T17:13:39.950Z,81.67
2023-09-15T17:14:39.962Z,81.98
2023-09-15T17:15:39.984Z,82.06
2023-09-15T17:16:39.997Z,82.23
2023-09-15T17:17:41.359Z,82.49
2023-09-15T17:18:40.030Z,82.55
2023-09-15T17:19:39.890Z,82.72
2023-09-15T17:20:39.949Z,82.85
2023-09-15T17:21:39.882Z,83.00
2023-09-15T17:22:39.864Z,83.20
2023-09-15T17:23:39.827Z,83.37
2023-09-15T17:24:39.928Z,83.50
2023-09-15T17:25:39.826Z,83.57
2023-09-15T17:26:39.811Z,83.66
2023-09-15T17:27:39.897Z,83.77
2023-09-15T17:28:39.813Z,83.90
2023-09-15T17:29:39.754Z,84.09
2023-09-15T17:30:39.843Z,84.18
2023-09-15T17:31:39.760Z,84.32
2023-09-15T17:32:39.750Z,84.39
2023-09-15T17:33:39.725Z,84.55
2023-09-15T17:34:39.762Z,84.60
2023-09-15T17:35:39.786Z,84.72
2023-09-15T17:36:39.755Z,84.84
2023-09-15T17:37:39.670Z,84.97
2023-09-15T17:38:41.050Z,84.98
2023-09-15T17:39:39.658Z,85.15
2023-09-15T17:40:39.630Z,85.31
2023-09-15T17:41:39.671Z,85.32
2023-09-15T17:42:39.750Z,85.59
2023-09-15T17:43:39.592Z,85.71
2023-09-15T17:44:39.589Z,85.88
2023-09-15T17:45:39.610Z,85.90
2023-09-15T17:46:39.578Z,86.11
2023-09-15T17:47:39.546Z,86.27
2023-09-15T17:48:39.557Z,86.44
2023-09-15T17:49:39.527Z,86.60
2023-09-15T17:50:39.518Z,86.74
2023-09-15T17:51:39.525Z,86.90
2023-09-15T17:52:39.475Z,87.04